Astrid Conroy — ZGAQ5 — position and weather

sailwx.info

Track history (hours):
 
Tides and Currents Weather Stations Pressure Air Temp Water Temp Dewpoint Dewpoint Depression Visibility Wind Speed Wind Dir Waves Ship Positions

Astrid Conroy

Last reported at 2016-Jun-25 12:33 UTC. Time now 2016-Jun-27 06:03 UTC.
Position N 49°52' W 003°26'.

Length 58 m; draft 3.4 m.

Type: Pleasure craft. MMSI: 319031500.

Date/timePositionNaut miles runAvg speedWind from/ knotsBaromVisibWave heightAir tempDewpointWater temp
2016-Jun-25 12:33N 49°52' W 003°26'1515.1
2016-Jun-25 11:32N 49°59' W 003°05'11216.1
2016-Jun-25 04:33N 50°26' W 000°16'6214.9
2016-Jun-25 00:24N 50°53' E 001°12'1214.7
2016-Jun-24 23:33N 51°01' E 001°26'1717.4
2016-Jun-24 22:33N 51°14' E 001°45'1717.0
2016-Jun-24 21:33N 51°29' E 001°59'1616.1
2016-Jun-24 20:33N 51°41' E 002°16'1815.6
2016-Jun-24 19:22N 51°54' E 002°36'10315.0
2016-Jun-24 12:33N 53°36' E 002°57'1616.5
2016-Jun-24 11:33N 53°51' E 003°10'1514.5
2016-Jun-24 10:32N 53°58' E 003°31'27715.1
2016-Jun-23 16:12N 58°33' E 004°37'1515.7
2016-Jun-23 15:16N 58°48' E 004°41'1115.8
2016-Jun-23 14:33N 58°59' E 004°43'1616.2
2016-Jun-23 13:33N 59°15' E 004°47'  
2016-Jun-15 17:20N 60°54' E 004°58'810.7
2016-Jun-15 16:33N 60°49' E 004°44'1615.8
2016-Jun-15 15:33N 60°34' E 004°55'4213.9
2016-Jun-15 12:33N 59°60' E 005°43'  
Track history (hours):
 
Tides and Currents Weather Stations Pressure Air Temp Water Temp Dewpoint Dewpoint Depression Visibility Wind Speed Wind Dir Waves Ship Positions

Astrid Conroy

Last reported at 2016-Jun-25 12:33 UTC. Time now 2016-Jun-27 06:03 UTC.
Position N 49°52' W 003°26'.

Length 58 m; draft 3.4 m.

Type: Pleasure craft. MMSI: 319031500.

Date/timePositionNaut miles runAvg speedWind from/ knotsBaromVisibWave heightAir tempDewpointWater temp
2016-Jun-25 12:33N 49°52' W 003°26'1515.1
2016-Jun-25 11:32N 49°59' W 003°05'11216.1
2016-Jun-25 04:33N 50°26' W 000°16'6214.9
2016-Jun-25 00:24N 50°53' E 001°12'1214.7
2016-Jun-24 23:33N 51°01' E 001°26'1717.4
2016-Jun-24 22:33N 51°14' E 001°45'1717.0
2016-Jun-24 21:33N 51°29' E 001°59'1616.1
2016-Jun-24 20:33N 51°41' E 002°16'1815.6
2016-Jun-24 19:22N 51°54' E 002°36'10315.0
2016-Jun-24 12:33N 53°36' E 002°57'1616.5
2016-Jun-24 11:33N 53°51' E 003°10'1514.5
2016-Jun-24 10:32N 53°58' E 003°31'27715.1
2016-Jun-23 16:12N 58°33' E 004°37'1515.7
2016-Jun-23 15:16N 58°48' E 004°41'1115.8
2016-Jun-23 14:33N 58°59' E 004°43'1616.2
2016-Jun-23 13:33N 59°15' E 004°47'  
2016-Jun-15 17:20N 60°54' E 004°58'810.7
2016-Jun-15 16:33N 60°49' E 004°44'1615.8
2016-Jun-15 15:33N 60°34' E 004°55'4213.9
2016-Jun-15 12:33N 59°60' E 005°43'  

Dump ship's entire track history